Time;durP1;ratioP1;P1;durP2;ratioP2;P2;SDS_P1;SDS_P2;PMS_P1;PMS_P2;Temp;Humidity;BMP_temperature;BMP_pressure;BME280_temperature;BME280_humidity;BME280_pressure;Samples;Min_cycle;Max_cycle;Signal;HPM_P1;HPM_P2
2022/01/11 00:00:21;;;;;;;235.10;51.03;;;;;;;;;;5031411;28;20045;-79
2022/01/11 00:02:52;;;;;;;370.83;59.05;;;;;;;;;;5031072;28;20060;-79
2022/01/11 00:05:23;;;;;;;205.23;49.33;;;;;;;;;;5048736;28;20049;-79
2022/01/11 00:07:51;;;;;;;250.00;51.35;;;;;;;;;;5028524;28;20052;-78
2022/01/11 00:12:52;;;;;;;317.65;55.42;;;;;;;;;;5047575;28;20037;-79
2022/01/11 00:15:18;;;;;;;325.77;59.40;;;;;;;;;;5047137;28;20043;-79
2022/01/11 00:17:44;;;;;;;256.92;50.20;;;;;;;;;;5028734;28;20041;-80
2022/01/11 00:20:13;;;;;;;218.65;53.03;;;;;;;;;;5046545;28;20501;-79
2022/01/11 00:22:57;;;;;;;221.63;51.20;;;;;;;;;;5046872;28;20052;-79
2022/01/11 00:25:23;;;;;;;303.10;53.13;;;;;;;;;;5045036;28;20040;-79
2022/01/11 00:27:50;;;;;;;273.55;51.45;;;;;;;;;;5029600;28;20103;-80
2022/01/11 00:30:16;;;;;;;186.85;46.72;;;;;;;;;;5029863;28;20406;-79
2022/01/11 00:32:47;;;;;;;224.98;48.17;;;;;;;;;;5047054;28;20124;-79
2022/01/11 00:35:16;;;;;;;224.23;45.85;;;;;;;;;;5047119;28;20037;-78
2022/01/11 00:37:42;;;;;;;249.02;47.72;;;;;;;;;;5047991;28;20037;-79
2022/01/11 00:40:09;;;;;;;206.88;45.30;;;;;;;;;;5047374;28;20029;-79
2022/01/11 00:42:35;;;;;;;210.48;48.53;;;;;;;;;;5049136;28;20033;-79
2022/01/11 00:45:05;;;;;;;247.85;50.05;;;;;;;;;;5047977;28;20045;-79
2022/01/11 00:47:31;;;;;;;251.35;51.42;;;;;;;;;;5048816;28;20592;-78
2022/01/11 00:49:57;;;;;;;200.60;49.03;;;;;;;;;;5047866;28;20081;-79
2022/01/11 00:52:24;;;;;;;196.25;43.42;;;;;;;;;;5048452;28;20498;-79
2022/01/11 00:54:50;;;;;;;221.02;46.35;;;;;;;;;;5031020;28;20049;-79
2022/01/11 00:57:16;;;;;;;165.40;45.35;;;;;;;;;;5038538;28;20141;-79
2022/01/11 00:59:42;;;;;;;149.82;39.97;;;;;;;;;;5028995;28;20391;-79
2022/01/11 01:02:08;;;;;;;214.35;48.95;;;;;;;;;;5045216;28;20068;-78
2022/01/11 01:04:34;;;;;;;199.07;48.03;;;;;;;;;;5038220;28;20044;-79
2022/01/11 01:07:00;;;;;;;183.15;42.10;;;;;;;;;;5046013;28;20045;-79
2022/01/11 01:09:33;;;;;;;208.88;46.22;;;;;;;;;;5039525;28;20060;-79
2022/01/11 01:11:59;;;;;;;154.85;40.35;;;;;;;;;;5047595;28;20052;-78
2022/01/11 01:14:25;;;;;;;147.48;40.05;;;;;;;;;;5012926;28;20354;-78
2022/01/11 01:16:51;;;;;;;168.60;42.45;;;;;;;;;;5029298;28;20100;-79
2022/01/11 01:19:19;;;;;;;215.98;43.78;;;;;;;;;;5027733;28;20049;-79
2022/01/11 01:21:47;;;;;;;176.98;37.35;;;;;;;;;;5047137;28;20569;-79
2022/01/11 01:24:14;;;;;;;229.73;40.95;;;;;;;;;;5009539;28;20124;-79
2022/01/11 01:26:40;;;;;;;193.75;42.47;;;;;;;;;;5028473;28;20083;-79
2022/01/11 01:29:06;;;;;;;192.35;44.17;;;;;;;;;;5046523;28;20052;-80
2022/01/11 01:31:33;;;;;;;191.43;40.25;;;;;;;;;;5028092;28;20041;-79
2022/01/11 01:33:59;;;;;;;261.52;46.38;;;;;;;;;;5029231;28;20437;-78
2022/01/11 01:36:26;;;;;;;210.93;45.28;;;;;;;;;;5027691;28;20040;-79
2022/01/11 01:38:52;;;;;;;240.77;50.65;;;;;;;;;;5044129;28;20045;-79
2022/01/11 01:41:20;;;;;;;278.33;47.35;;;;;;;;;;5045453;28;20480;-78
2022/01/11 01:43:48;;;;;;;203.95;42.90;;;;;;;;;;5028067;28;20036;-78
2022/01/11 01:46:15;;;;;;;207.05;45.55;;;;;;;;;;5045647;28;20052;-78
2022/01/11 01:48:41;;;;;;;241.07;45.95;;;;;;;;;;5045097;28;20052;-78
2022/01/11 01:51:09;;;;;;;207.68;44.97;;;;;;;;;;5046044;28;20468;-78
2022/01/11 01:53:36;;;;;;;235.15;47.42;;;;;;;;;;5010746;28;20103;-78
2022/01/11 01:56:02;;;;;;;211.07;41.85;;;;;;;;;;5043500;28;20041;-79
2022/01/11 01:58:29;;;;;;;221.70;41.40;;;;;;;;;;5045241;28;20118;-80
2022/01/11 02:01:02;;;;;;;374.58;48.53;;;;;;;;;;5042080;28;20057;-79
2022/01/11 02:03:30;;;;;;;289.40;43.80;;;;;;;;;;5026729;28;20056;-78
2022/01/11 02:05:57;;;;;;;253.80;40.30;;;;;;;;;;5028004;28;20084;-78
2022/01/11 02:08:24;;;;;;;341.67;48.78;;;;;;;;;;5026394;28;20041;-80
2022/01/11 02:10:50;;;;;;;353.52;51.47;;;;;;;;;;5026655;28;20458;-79
2022/01/11 02:13:16;;;;;;;267.92;48.00;;;;;;;;;;5045325;28;20044;-78
2022/01/11 02:15:43;;;;;;;367.42;55.78;;;;;;;;;;5026931;28;20040;-78
2022/01/11 02:18:10;;;;;;;342.13;49.80;;;;;;;;;;5027126;28;20082;-79
2022/01/11 02:20:38;;;;;;;282.75;49.85;;;;;;;;;;5045051;28;20045;-78
2022/01/11 02:23:04;;;;;;;352.67;52.72;;;;;;;;;;5009395;28;20120;-78
2022/01/11 02:25:30;;;;;;;412.60;52.17;;;;;;;;;;5045672;28;20038;-78
2022/01/11 02:27:56;;;;;;;340.55;48.55;;;;;;;;;;5044971;28;20148;-78
2022/01/11 02:30:22;;;;;;;306.23;45.42;;;;;;;;;;5028615;28;20047;-78
2022/01/11 02:32:49;;;;;;;355.45;49.40;;;;;;;;;;5026760;28;20839;-78
2022/01/11 02:35:15;;;;;;;385.70;51.17;;;;;;;;;;5045295;28;20075;-78
2022/01/11 02:37:43;;;;;;;286.33;46.70;;;;;;;;;;5009961;28;20519;-78
2022/01/11 02:40:09;;;;;;;274.88;45.83;;;;;;;;;;5045290;28;20575;-79
2022/01/11 02:42:35;;;;;;;328.30;51.60;;;;;;;;;;5026927;28;20052;-78
2022/01/11 02:45:01;;;;;;;267.70;45.88;;;;;;;;;;5008556;28;20160;-78
2022/01/11 02:47:27;;;;;;;374.60;51.50;;;;;;;;;;5045145;28;20055;-78
2022/01/11 02:49:53;;;;;;;348.08;58.75;;;;;;;;;;5043912;28;20056;-78
2022/01/11 02:52:19;;;;;;;277.48;55.47;;;;;;;;;;5027708;28;20052;-78
2022/01/11 02:54:45;;;;;;;304.95;51.17;;;;;;;;;;5044716;28;20056;-79
2022/01/11 02:57:11;;;;;;;284.33;52.10;;;;;;;;;;5031803;28;20065;-79
2022/01/11 02:59:37;;;;;;;267.77;53.17;;;;;;;;;;5014400;28;20049;-78
2022/01/11 03:02:03;;;;;;;320.17;53.95;;;;;;;;;;5031120;28;20045;-80
2022/01/11 03:04:33;;;;;;;279.02;52.72;;;;;;;;;;5015059;28;20048;-79
2022/01/11 03:06:59;;;;;;;264.58;51.28;;;;;;;;;;5048284;28;20063;-79
2022/01/11 03:09:29;;;;;;;242.43;51.65;;;;;;;;;;5014944;28;20051;-79
2022/01/11 03:11:56;;;;;;;248.85;46.83;;;;;;;;;;5030556;28;20377;-79
2022/01/11 03:14:22;;;;;;;219.45;48.92;;;;;;;;;;5031988;28;20145;-78
2022/01/11 03:16:48;;;;;;;208.80;45.03;;;;;;;;;;5048628;28;20061;-79
2022/01/11 03:19:14;;;;;;;204.95;42.08;;;;;;;;;;5048816;28;20381;-79
2022/01/11 03:21:40;;;;;;;293.35;53.20;;;;;;;;;;5030662;28;20396;-79
2022/01/11 03:24:06;;;;;;;355.48;56.60;;;;;;;;;;5030839;28;20404;-79
2022/01/11 03:26:32;;;;;;;322.88;55.17;;;;;;;;;;5030162;28;20122;-80
2022/01/11 03:28:58;;;;;;;190.50;44.35;;;;;;;;;;5030169;28;20053;-78
2022/01/11 03:31:24;;;;;;;270.23;53.00;;;;;;;;;;5049350;28;20076;-79
2022/01/11 03:33:50;;;;;;;256.55;54.33;;;;;;;;;;5049414;28;20044;-79
2022/01/11 03:36:16;;;;;;;229.45;53.67;;;;;;;;;;5030892;28;20047;-79
2022/01/11 03:38:42;;;;;;;235.18;50.70;;;;;;;;;;5047603;28;20104;-79
2022/01/11 03:41:08;;;;;;;240.45;51.40;;;;;;;;;;5030727;28;20504;-79
2022/01/11 03:43:34;;;;;;;183.75;50.00;;;;;;;;;;5023422;28;20049;-79
2022/01/11 03:46:01;;;;;;;211.70;50.25;;;;;;;;;;5044751;28;20126;-79
2022/01/11 03:48:27;;;;;;;231.20;48.15;;;;;;;;;;5028883;28;20384;-79
2022/01/11 03:50:54;;;;;;;230.40;51.33;;;;;;;;;;5047139;28;20163;-80
2022/01/11 03:53:32;;;;;;;241.75;53.33;;;;;;;;;;5029551;28;20049;-80
2022/01/11 03:56:10;;;;;;;217.82;51.58;;;;;;;;;;5030122;28;20398;-80
2022/01/11 03:58:37;;;;;;;239.15;53.10;;;;;;;;;;5046756;28;20041;-80
2022/01/11 04:01:03;;;;;;;269.00;54.60;;;;;;;;;;5030333;28;20049;-80
2022/01/11 04:03:29;;;;;;;233.50;54.90;;;;;;;;;;5029249;28;20064;-80
2022/01/11 04:05:55;;;;;;;183.50;47.92;;;;;;;;;;5030834;28;20444;-80
2022/01/11 04:08:23;;;;;;;177.50;47.78;;;;;;;;;;5046400;28;20041;-80
2022/01/11 04:10:49;;;;;;;189.25;48.67;;;;;;;;;;5048341;28;20049;-77
2022/01/11 04:13:15;;;;;;;228.68;52.10;;;;;;;;;;5047089;28;20427;-80
2022/01/11 04:15:41;;;;;;;265.95;57.10;;;;;;;;;;5013485;28;20462;-80
2022/01/11 04:18:07;;;;;;;293.38;56.33;;;;;;;;;;5027345;28;20040;-80
2022/01/11 04:20:33;;;;;;;268.52;52.15;;;;;;;;;;5029196;28;20052;-80
2022/01/11 04:22:59;;;;;;;318.52;60.67;;;;;;;;;;5047941;28;20049;-79
2022/01/11 04:25:25;;;;;;;299.65;56.28;;;;;;;;;;5047005;28;20037;-79
2022/01/11 04:27:51;;;;;;;357.88;58.40;;;;;;;;;;5030637;28;20041;-80
2022/01/11 04:30:17;;;;;;;330.58;57.45;;;;;;;;;;5029002;28;20048;-80
2022/01/11 04:32:44;;;;;;;268.60;54.20;;;;;;;;;;5047987;28;20076;-80
2022/01/11 04:35:12;;;;;;;266.02;52.97;;;;;;;;;;5030057;28;20037;-79
2022/01/11 04:37:38;;;;;;;287.00;57.85;;;;;;;;;;5044528;28;20037;-80
2022/01/11 04:40:05;;;;;;;294.27;56.22;;;;;;;;;;5029556;28;20132;-80
2022/01/11 04:42:31;;;;;;;230.60;53.42;;;;;;;;;;5046466;28;20082;-81
2022/01/11 04:44:57;;;;;;;289.42;57.95;;;;;;;;;;5047588;28;20079;-80
2022/01/11 04:47:23;;;;;;;313.85;58.40;;;;;;;;;;5046155;28;20087;-80
2022/01/11 04:49:49;;;;;;;338.85;62.72;;;;;;;;;;5046837;28;20045;-81
2022/01/11 04:52:15;;;;;;;260.00;52.97;;;;;;;;;;5045414;28;20047;-80
2022/01/11 04:54:41;;;;;;;414.17;61.55;;;;;;;;;;5047168;28;20452;-80
2022/01/11 04:57:08;;;;;;;270.15;56.22;;;;;;;;;;5047232;28;20494;-80
2022/01/11 04:59:34;;;;;;;404.42;65.75;;;;;;;;;;5025698;28;20047;-81
2022/01/11 05:02:00;;;;;;;196.00;55.38;;;;;;;;;;5047024;28;20041;-80
2022/01/11 05:04:26;;;;;;;192.07;55.35;;;;;;;;;;5044978;28;20081;-79
2022/01/11 05:06:52;;;;;;;208.38;54.47;;;;;;;;;;5027736;28;20064;-80
2022/01/11 05:09:18;;;;;;;233.90;56.20;;;;;;;;;;5011333;28;20485;-80
2022/01/11 05:11:44;;;;;;;225.43;58.25;;;;;;;;;;5027414;28;20507;-80
2022/01/11 05:14:10;;;;;;;185.63;58.97;;;;;;;;;;5027659;28;21925;-80
2022/01/11 05:16:36;;;;;;;162.35;52.83;;;;;;;;;;5045045;28;20029;-80
2022/01/11 05:19:02;;;;;;;159.18;52.63;;;;;;;;;;5044284;28;20052;-80
2022/01/11 05:21:28;;;;;;;166.90;54.47;;;;;;;;;;5026029;28;20115;-80
2022/01/11 05:23:54;;;;;;;182.32;53.58;;;;;;;;;;5027294;28;20099;-80
2022/01/11 05:26:20;;;;;;;156.93;52.55;;;;;;;;;;5043967;28;20049;-80
2022/01/11 05:28:46;;;;;;;178.88;52.50;;;;;;;;;;5045664;28;20466;-80
2022/01/11 05:31:12;;;;;;;200.55;55.53;;;;;;;;;;5044762;28;20044;-80
2022/01/11 05:33:38;;;;;;;187.75;54.85;;;;;;;;;;5044643;28;20128;-80
2022/01/11 05:36:04;;;;;;;219.80;52.00;;;;;;;;;;5045856;28;20440;-80
2022/01/11 05:38:30;;;;;;;230.80;54.92;;;;;;;;;;5045594;28;20412;-80
2022/01/11 05:40:56;;;;;;;213.05;52.92;;;;;;;;;;5027871;28;20095;-80
2022/01/11 05:43:23;;;;;;;259.20;55.42;;;;;;;;;;5026556;28;20033;-80
2022/01/11 05:45:49;;;;;;;233.00;53.10;;;;;;;;;;5027126;28;20033;-79
2022/01/11 05:48:15;;;;;;;210.55;53.63;;;;;;;;;;5043888;28;20071;-80
2022/01/11 05:50:43;;;;;;;184.43;51.95;;;;;;;;;;5026315;28;20041;-80
2022/01/11 05:53:09;;;;;;;163.40;46.70;;;;;;;;;;5044183;28;20098;-81
2022/01/11 05:55:35;;;;;;;215.38;52.30;;;;;;;;;;5026028;28;20116;-82
2022/01/11 05:58:01;;;;;;;227.40;53.47;;;;;;;;;;5011904;28;20037;-82
2022/01/11 06:00:27;;;;;;;188.40;49.65;;;;;;;;;;5044502;28;20937;-82
2022/01/11 06:02:54;;;;;;;172.10;48.28;;;;;;;;;;5027415;28;20848;-82
2022/01/11 06:05:21;;;;;;;155.10;49.55;;;;;;;;;;4993417;28;20048;-82
2022/01/11 06:07:47;;;;;;;128.65;45.90;;;;;;;;;;5011496;28;20045;-82
2022/01/11 06:10:14;;;;;;;124.63;43.65;;;;;;;;;;5028736;28;20084;-83
2022/01/11 06:12:40;;;;;;;123.00;43.25;;;;;;;;;;5043815;28;20049;-82
2022/01/11 06:15:06;;;;;;;131.38;43.25;;;;;;;;;;5028616;28;20057;-82
2022/01/11 06:17:32;;;;;;;144.18;44.15;;;;;;;;;;5045717;28;20462;-82
2022/01/11 06:19:59;;;;;;;138.13;46.08;;;;;;;;;;5028203;28;20618;-83
2022/01/11 06:22:25;;;;;;;196.90;49.58;;;;;;;;;;5043352;28;20033;-83
2022/01/11 06:24:51;;;;;;;154.10;45.33;;;;;;;;;;5043981;28;20076;-83
2022/01/11 06:27:17;;;;;;;158.75;45.90;;;;;;;;;;5045715;28;20041;-83
2022/01/11 06:29:44;;;;;;;158.27;47.47;;;;;;;;;;5028490;28;20561;-82
2022/01/11 06:32:10;;;;;;;187.43;50.72;;;;;;;;;;5027485;28;20051;-82
2022/01/11 06:34:36;;;;;;;117.07;41.72;;;;;;;;;;5045684;28;20400;-82
2022/01/11 06:37:02;;;;;;;190.52;48.70;;;;;;;;;;5046587;28;20049;-82
2022/01/11 06:39:29;;;;;;;148.95;45.42;;;;;;;;;;5045278;28;20041;-82
2022/01/11 06:41:55;;;;;;;147.45;43.55;;;;;;;;;;5028670;28;20065;-82
2022/01/11 06:44:21;;;;;;;175.63;45.85;;;;;;;;;;5045348;28;20059;-82
2022/01/11 06:46:47;;;;;;;179.07;46.20;;;;;;;;;;5027863;28;20445;-82
2022/01/11 06:49:13;;;;;;;184.10;49.10;;;;;;;;;;5045762;28;20041;-82
2022/01/11 06:51:39;;;;;;;172.25;46.63;;;;;;;;;;5026765;28;20048;-82
2022/01/11 06:54:05;;;;;;;252.57;51.55;;;;;;;;;;5030121;28;20043;-82
2022/01/11 06:56:31;;;;;;;208.15;51.08;;;;;;;;;;5011114;28;20049;-83
2022/01/11 06:58:57;;;;;;;213.40;50.92;;;;;;;;;;5046310;28;20098;-83
2022/01/11 07:01:23;;;;;;;182.70;49.78;;;;;;;;;;5045048;28;20047;-82
2022/01/11 07:03:49;;;;;;;213.90;50.65;;;;;;;;;;5045666;28;20488;-83
2022/01/11 07:06:15;;;;;;;198.38;53.20;;;;;;;;;;5027164;28;20044;-84
2022/01/11 07:08:41;;;;;;;194.77;53.97;;;;;;;;;;5011065;28;20053;-82
2022/01/11 07:11:07;;;;;;;215.82;56.00;;;;;;;;;;5010990;28;21693;-83
2022/01/11 07:13:36;;;;;;;164.15;47.25;;;;;;;;;;5044429;28;20029;-82
2022/01/11 07:16:03;;;;;;;168.70;48.70;;;;;;;;;;5045767;28;20029;-82
2022/01/11 07:18:29;;;;;;;160.73;50.58;;;;;;;;;;5027286;28;20491;-82
2022/01/11 07:20:55;;;;;;;155.60;49.95;;;;;;;;;;5045276;28;20036;-82
2022/01/11 07:23:21;;;;;;;152.68;50.08;;;;;;;;;;5044749;28;20044;-83
2022/01/11 07:25:47;;;;;;;152.88;49.92;;;;;;;;;;5028013;28;20039;-82
2022/01/11 07:28:15;;;;;;;151.48;51.33;;;;;;;;;;5044532;28;20103;-82
2022/01/11 07:30:41;;;;;;;140.25;51.83;;;;;;;;;;5044847;28;20037;-83
2022/01/11 07:33:07;;;;;;;132.77;45.42;;;;;;;;;;5044994;28;20136;-82
2022/01/11 07:35:34;;;;;;;147.57;48.60;;;;;;;;;;5044587;28;20408;-82
2022/01/11 07:38:00;;;;;;;152.48;52.17;;;;;;;;;;5044681;28;20519;-83
2022/01/11 07:40:26;;;;;;;144.73;48.70;;;;;;;;;;5026207;28;20041;-83
2022/01/11 07:42:52;;;;;;;135.10;46.92;;;;;;;;;;5013244;28;20546;-82
2022/01/11 07:45:18;;;;;;;134.30;46.47;;;;;;;;;;5029765;28;20040;-82
2022/01/11 07:47:45;;;;;;;128.20;46.50;;;;;;;;;;5031208;28;20041;-81
2022/01/11 07:50:11;;;;;;;114.72;43.90;;;;;;;;;;5031413;28;20045;-82
2022/01/11 07:52:37;;;;;;;125.03;47.40;;;;;;;;;;5012045;28;20185;-82
2022/01/11 07:55:04;;;;;;;128.60;48.47;;;;;;;;;;5048310;28;20831;-82
2022/01/11 07:57:30;;;;;;;123.22;45.67;;;;;;;;;;5047206;28;20492;-82
2022/01/11 07:59:56;;;;;;;121.10;45.20;;;;;;;;;;5048800;28;20061;-82
2022/01/11 08:02:23;;;;;;;124.45;41.90;;;;;;;;;;5029632;28;20041;-82
2022/01/11 08:04:49;;;;;;;134.82;48.97;;;;;;;;;;5049285;28;20048;-81
2022/01/11 08:07:15;;;;;;;133.93;46.90;;;;;;;;;;5030979;28;20053;-82
2022/01/11 08:09:41;;;;;;;139.05;48.28;;;;;;;;;;5048364;28;20037;-82
2022/01/11 08:12:08;;;;;;;136.80;45.38;;;;;;;;;;5029880;28;20048;-82
2022/01/11 08:14:34;;;;;;;143.95;51.47;;;;;;;;;;5028057;28;20128;-82
2022/01/11 08:17:00;;;;;;;147.90;52.67;;;;;;;;;;5048716;28;20033;-81
2022/01/11 08:19:27;;;;;;;153.75;51.03;;;;;;;;;;5030339;28;20510;-81
2022/01/11 08:21:53;;;;;;;139.48;49.08;;;;;;;;;;5013668;28;20084;-82
2022/01/11 08:24:22;;;;;;;150.00;49.95;;;;;;;;;;5030115;28;20037;-81
2022/01/11 08:26:48;;;;;;;149.25;48.92;;;;;;;;;;5047687;28;20116;-82
2022/01/11 08:29:14;;;;;;;146.40;48.67;;;;;;;;;;5047520;28;20443;-82
2022/01/11 08:31:40;;;;;;;159.93;50.25;;;;;;;;;;5047289;28;20413;-82
2022/01/11 08:34:11;;;;;;;151.00;50.65;;;;;;;;;;5029919;28;20369;-82
2022/01/11 08:36:38;;;;;;;129.73;50.50;;;;;;;;;;5029158;28;20072;-82
2022/01/11 08:39:04;;;;;;;116.72;43.83;;;;;;;;;;5047840;28;20059;-82
2022/01/11 08:41:30;;;;;;;120.90;47.65;;;;;;;;;;5028357;28;20040;-82
2022/01/11 08:43:56;;;;;;;115.50;42.90;;;;;;;;;;5047710;28;20461;-82
2022/01/11 08:46:22;;;;;;;108.00;43.30;;;;;;;;;;5012776;28;20547;-81
2022/01/11 08:48:48;;;;;;;111.45;44.08;;;;;;;;;;5028375;28;20136;-81
2022/01/11 08:51:14;;;;;;;111.72;45.28;;;;;;;;;;5046880;28;20098;-82
2022/01/11 08:53:40;;;;;;;102.18;40.90;;;;;;;;;;5044472;28;20098;-82
2022/01/11 08:56:07;;;;;;;104.53;41.78;;;;;;;;;;5046969;28;20053;-82
2022/01/11 08:58:33;;;;;;;96.22;40.80;;;;;;;;;;5045868;28;20040;-82
2022/01/11 09:00:59;;;;;;;112.38;44.55;;;;;;;;;;5029403;28;20045;-82
2022/01/11 09:03:25;;;;;;;108.65;43.10;;;;;;;;;;5028012;28;20051;-82
2022/01/11 09:05:52;;;;;;;98.20;37.78;;;;;;;;;;5026668;28;20063;-82
2022/01/11 09:08:18;;;;;;;97.60;41.15;;;;;;;;;;5028924;28;20033;-82
2022/01/11 09:10:44;;;;;;;91.35;38.80;;;;;;;;;;5022997;28;20752;-82
2022/01/11 09:13:11;;;;;;;98.50;39.47;;;;;;;;;;5049034;28;20044;-81
2022/01/11 09:15:37;;;;;;;86.25;38.65;;;;;;;;;;5032101;28;20464;-82
2022/01/11 09:18:04;;;;;;;96.70;40.55;;;;;;;;;;5030520;28;20053;-82
2022/01/11 09:20:30;;;;;;;86.32;39.53;;;;;;;;;;5048511;28;20049;-82
2022/01/11 09:22:56;;;;;;;88.53;41.53;;;;;;;;;;5048508;28;20037;-82
2022/01/11 09:25:22;;;;;;;87.20;40.97;;;;;;;;;;5048083;28;20467;-82
2022/01/11 09:27:48;;;;;;;91.93;38.75;;;;;;;;;;5046626;28;20105;-82
2022/01/11 09:30:15;;;;;;;96.55;39.92;;;;;;;;;;5048383;28;20052;-82
2022/01/11 09:32:42;;;;;;;86.03;38.20;;;;;;;;;;5029644;28;20049;-81
2022/01/11 09:35:09;;;;;;;89.30;39.00;;;;;;;;;;5030743;28;20121;-81
2022/01/11 09:37:35;;;;;;;83.75;38.35;;;;;;;;;;5047594;28;20140;-81
2022/01/11 09:40:01;;;;;;;81.68;37.13;;;;;;;;;;5047017;28;20079;-82
2022/01/11 09:42:27;;;;;;;91.53;38.40;;;;;;;;;;5028221;28;20041;-81
2022/01/11 09:44:55;;;;;;;76.30;34.85;;;;;;;;;;5029169;28;20065;-81
2022/01/11 09:47:21;;;;;;;82.38;36.05;;;;;;;;;;5028386;28;20045;-81
2022/01/11 09:49:47;;;;;;;84.03;36.60;;;;;;;;;;5029752;28;20053;-81
2022/01/11 09:52:14;;;;;;;80.80;35.95;;;;;;;;;;5029882;28;20581;-81
2022/01/11 09:54:42;;;;;;;78.30;36.55;;;;;;;;;;5027172;28;20057;-82
2022/01/11 09:57:09;;;;;;;78.40;35.83;;;;;;;;;;5028795;28;20139;-81
2022/01/11 09:59:35;;;;;;;83.05;33.92;;;;;;;;;;5028071;28;20156;-84
2022/01/11 10:02:02;;;;;;;69.15;34.58;;;;;;;;;;5046614;28;20049;-81
2022/01/11 10:04:32;;;;;;;85.55;34.67;;;;;;;;;;5028303;28;20519;-81
2022/01/11 10:07:08;;;;;;;68.60;32.58;;;;;;;;;;5046737;28;20092;-81
2022/01/11 10:09:48;;;;;;;77.65;35.53;;;;;;;;;;5028734;28;20392;-81
2022/01/11 10:12:14;;;;;;;58.58;28.90;;;;;;;;;;5027285;28;20087;-81
2022/01/11 10:14:45;;;;;;;62.38;30.05;;;;;;;;;;5027377;28;20098;-81
2022/01/11 10:17:18;;;;;;;55.42;28.85;;;;;;;;;;5046122;28;20178;-80
2022/01/11 10:19:46;;;;;;;54.08;28.90;;;;;;;;;;5028806;28;20056;-81
2022/01/11 10:22:22;;;;;;;50.40;26.17;;;;;;;;;;5029547;28;20076;-80
2022/01/11 10:24:51;;;;;;;51.22;28.48;;;;;;;;;;5047397;28;20586;-80
2022/01/11 10:27:19;;;;;;;55.92;27.58;;;;;;;;;;5010263;28;20049;-81
2022/01/11 10:29:49;;;;;;;49.67;27.08;;;;;;;;;;5031305;28;20073;-81
2022/01/11 10:32:18;;;;;;;42.30;25.42;;;;;;;;;;5038413;28;20501;-81
2022/01/11 10:34:48;;;;;;;47.22;24.05;;;;;;;;;;5033849;28;20049;-81
2022/01/11 10:37:15;;;;;;;37.70;22.92;;;;;;;;;;5038807;28;20049;-81
2022/01/11 10:39:43;;;;;;;38.38;23.80;;;;;;;;;;5009404;28;20096;-81
2022/01/11 10:42:23;;;;;;;37.78;22.05;;;;;;;;;;5016598;28;20051;-80
2022/01/11 10:44:54;;;;;;;38.47;21.77;;;;;;;;;;5031965;28;20393;-81
2022/01/11 10:47:22;;;;;;;31.17;17.40;;;;;;;;;;4999630;28;20155;-81
2022/01/11 10:49:49;;;;;;;34.47;20.23;;;;;;;;;;5022690;28;20040;-81
2022/01/11 10:52:25;;;;;;;29.00;17.40;;;;;;;;;;5031632;28;20049;-81
2022/01/11 10:54:51;;;;;;;29.42;16.88;;;;;;;;;;5044289;28;20048;-83
2022/01/11 10:57:27;;;;;;;36.97;21.05;;;;;;;;;;5029043;28;20041;-83
2022/01/11 11:00:08;;;;;;;36.80;20.75;;;;;;;;;;5045327;28;20044;-82
2022/01/11 11:02:34;;;;;;;29.02;18.67;;;;;;;;;;5046039;28;20106;-83
2022/01/11 11:05:17;;;;;;;33.60;18.95;;;;;;;;;;5028717;28;20041;-84
2022/01/11 11:07:45;;;;;;;29.83;18.70;;;;;;;;;;5028754;28;20110;-81
2022/01/11 11:10:12;;;;;;;28.00;17.80;;;;;;;;;;5029150;28;20041;-82
2022/01/11 11:12:38;;;;;;;29.23;17.30;;;;;;;;;;5027697;28;20158;-82
2022/01/11 11:15:06;;;;;;;29.45;16.70;;;;;;;;;;5047086;28;20056;-82
2022/01/11 11:17:32;;;;;;;30.25;16.30;;;;;;;;;;5048749;28;20188;-81
2022/01/11 11:20:00;;;;;;;27.17;16.35;;;;;;;;;;5050739;28;20096;-82
2022/01/11 11:22:31;;;;;;;26.90;17.42;;;;;;;;;;5032587;28;20049;-83
2022/01/11 11:24:57;;;;;;;23.80;15.00;;;;;;;;;;5032288;28;20049;-82
2022/01/11 11:27:25;;;;;;;25.42;14.18;;;;;;;;;;5050552;28;20130;-82
2022/01/11 11:29:51;;;;;;;24.67;14.65;;;;;;;;;;5031689;28;20048;-81
2022/01/11 11:32:18;;;;;;;19.35;11.20;;;;;;;;;;5049559;28;20128;-81
2022/01/11 11:34:45;;;;;;;22.15;14.15;;;;;;;;;;5021224;28;20530;-81
2022/01/11 11:37:14;;;;;;;23.80;12.65;;;;;;;;;;5016838;28;20551;-82
2022/01/11 11:39:41;;;;;;;20.80;13.27;;;;;;;;;;5049993;28;20037;-81
2022/01/11 11:42:10;;;;;;;23.73;14.77;;;;;;;;;;5030229;28;20251;-81
2022/01/11 11:44:37;;;;;;;23.38;14.35;;;;;;;;;;5014901;28;20484;-82
2022/01/11 11:47:05;;;;;;;23.95;12.90;;;;;;;;;;5031036;28;20052;-81
2022/01/11 11:49:46;;;;;;;24.25;13.45;;;;;;;;;;5048046;28;20055;-81
2022/01/11 11:52:23;;;;;;;22.35;12.23;;;;;;;;;;5045406;28;20052;-81
2022/01/11 11:54:55;;;;;;;24.27;13.38;;;;;;;;;;5048634;28;20056;-81
2022/01/11 11:57:22;;;;;;;19.88;11.80;;;;;;;;;;5048248;28;20135;-82
2022/01/11 11:59:53;;;;;;;18.05;12.70;;;;;;;;;;5048849;28;20381;-82
2022/01/11 12:02:34;;;;;;;22.52;14.45;;;;;;;;;;5048814;28;20511;-79
2022/01/11 12:05:01;;;;;;;25.20;15.43;;;;;;;;;;5042451;28;20067;-80
2022/01/11 12:07:31;;;;;;;19.10;10.40;;;;;;;;;;5048932;28;20056;-80
2022/01/11 12:09:58;;;;;;;19.00;12.60;;;;;;;;;;5029645;28;20134;-81
2022/01/11 12:12:43;;;;;;;21.00;13.55;;;;;;;;;;5049102;28;20033;-80
2022/01/11 12:15:22;;;;;;;25.85;13.68;;;;;;;;;;5030302;28;20053;-80
2022/01/11 12:18:00;;;;;;;23.85;15.23;;;;;;;;;;5047370;28;20045;-80
2022/01/11 12:20:45;;;;;;;25.02;14.80;;;;;;;;;;5026817;28;20087;-80
2022/01/11 12:23:20;;;;;;;20.55;14.32;;;;;;;;;;5029238;28;20047;-80
2022/01/11 12:25:50;;;;;;;24.85;14.35;;;;;;;;;;5047179;28;20045;-81
2022/01/11 12:28:18;;;;;;;21.70;13.80;;;;;;;;;;5047544;28;20198;-80
2022/01/11 12:30:44;;;;;;;22.67;14.38;;;;;;;;;;5047235;28;20098;-81
2022/01/11 12:33:11;;;;;;;24.88;13.27;;;;;;;;;;5029218;28;20156;-80
2022/01/11 12:35:56;;;;;;;22.10;14.57;;;;;;;;;;5028134;28;20029;-81
2022/01/11 12:38:22;;;;;;;24.00;14.45;;;;;;;;;;5028402;28;20128;-80
2022/01/11 12:40:49;;;;;;;23.02;14.35;;;;;;;;;;5046882;28;20412;-80
2022/01/11 12:43:35;;;;;;;21.33;13.98;;;;;;;;;;5046550;28;20045;-81
2022/01/11 12:46:07;;;;;;;24.17;14.45;;;;;;;;;;5035674;28;20113;-80
2022/01/11 12:48:41;;;;;;;28.08;17.30;;;;;;;;;;5054732;28;20148;-80
2022/01/11 12:51:07;;;;;;;30.65;14.05;;;;;;;;;;5049541;28;20053;-81
2022/01/11 12:53:33;;;;;;;20.33;14.13;;;;;;;;;;5044813;28;20413;-81
2022/01/11 12:55:59;;;;;;;21.38;12.73;;;;;;;;;;5028465;28;20476;-80
2022/01/11 12:58:25;;;;;;;21.85;13.00;;;;;;;;;;5029062;28;20516;-80
2022/01/11 13:00:52;;;;;;;25.50;13.50;;;;;;;;;;5047545;28;20044;-80
2022/01/11 13:03:18;;;;;;;20.83;14.07;;;;;;;;;;5043496;28;20545;-81
2022/01/11 13:05:44;;;;;;;21.27;13.38;;;;;;;;;;5010491;28;20072;-80
2022/01/11 13:08:10;;;;;;;17.00;10.35;;;;;;;;;;5011285;28;20037;-81
2022/01/11 13:10:39;;;;;;;18.52;11.55;;;;;;;;;;5028354;28;20111;-80
2022/01/11 13:13:11;;;;;;;22.92;13.35;;;;;;;;;;5026651;28;20103;-81
2022/01/11 13:15:37;;;;;;;20.15;13.10;;;;;;;;;;5025957;28;20145;-81
2022/01/11 13:18:09;;;;;;;20.40;14.02;;;;;;;;;;5014856;28;20097;-80
2022/01/11 13:20:36;;;;;;;23.52;13.85;;;;;;;;;;5010974;28;20093;-81
2022/01/11 13:23:14;;;;;;;24.52;13.65;;;;;;;;;;5037557;28;20592;-81
2022/01/11 13:25:45;;;;;;;20.23;13.70;;;;;;;;;;5047750;28;20034;-80
2022/01/11 13:28:11;;;;;;;23.08;13.10;;;;;;;;;;5034456;28;20044;-81
2022/01/11 13:30:49;;;;;;;20.00;12.05;;;;;;;;;;5020868;28;20037;-81
2022/01/11 13:33:24;;;;;;;24.33;14.30;;;;;;;;;;5013743;28;20464;-81
2022/01/11 13:35:50;;;;;;;22.88;13.45;;;;;;;;;;5028371;28;20041;-81
2022/01/11 13:38:16;;;;;;;20.60;11.90;;;;;;;;;;5038972;28;20044;-80
2022/01/11 13:40:43;;;;;;;20.80;12.27;;;;;;;;;;5026806;28;20433;-81
2022/01/11 13:43:13;;;;;;;23.60;14.38;;;;;;;;;;5047824;28;20132;-81
2022/01/11 13:45:41;;;;;;;23.42;13.60;;;;;;;;;;5046679;28;20388;-82
2022/01/11 13:48:19;;;;;;;17.38;11.20;;;;;;;;;;5027454;28;20094;-82
2022/01/11 13:50:48;;;;;;;20.05;11.95;;;;;;;;;;5028232;28;20412;-82
2022/01/11 13:53:25;;;;;;;21.00;12.07;;;;;;;;;;5025120;28;20099;-82
2022/01/11 13:55:53;;;;;;;20.80;13.15;;;;;;;;;;5047236;28;20060;-82
2022/01/11 13:58:20;;;;;;;23.27;14.07;;;;;;;;;;5033529;28;20049;-81
2022/01/11 14:00:47;;;;;;;18.33;12.63;;;;;;;;;;5035444;28;20123;-81
2022/01/11 14:03:18;;;;;;;22.00;12.35;;;;;;;;;;5028461;28;20044;-80
2022/01/11 14:05:44;;;;;;;18.63;11.50;;;;;;;;;;5027834;28;20044;-81
2022/01/11 14:08:12;;;;;;;20.15;12.68;;;;;;;;;;5046723;28;20385;-81
2022/01/11 14:10:38;;;;;;;23.08;11.65;;;;;;;;;;5045449;28;20040;-81
2022/01/11 14:13:08;;;;;;;21.92;12.10;;;;;;;;;;5046363;28;20041;-81